Terminal Aerodrome Forecast
Issued by NWS Shreveport, LA

Home | Current Version | Previous Version | Text Only | Print | Product List | Glossary On
Versions: 1 2 3 4 5 6 7 8 9 10 11 12
686
FTUS44 KSHV 121151
TAFTYR
TAF
KTYR 121151Z 1212/1312 06004KT P6SM SKC
     FM121500 03007KT P6SM SCT250
     FM130000 02005KT P6SM FEW250
     FM130900 05007KT P6SM SKC=

USA.gov is the U.S. government's official web portal to all federal, state and local government web resources and services.